Time;durP1;ratioP1;P1;durP2;ratioP2;P2;SDS_P1;SDS_P2;PMS_P1;PMS_P2;Temp;Humidity;BMP_temperature;BMP_pressure;BME280_temperature;BME280_humidity;BME280_pressure;Samples;Min_cycle;Max_cycle;Signal;HPM_P1;HPM_P2
2024/01/04 00:02:10;;;;;;;;;;;19.50;69.10;;;;;;7315524;19;9265;-61
2024/01/04 00:04:42;;;;;;;;;;;19.50;69.10;;;;;;7315723;19;9792;-61
2024/01/04 00:07:34;;;;;;;;;;;19.40;69.10;;;;;;7313715;19;9619;-61
2024/01/04 00:10:03;;;;;;;;;;;19.40;69.20;;;;;;7312538;19;9262;-61
2024/01/04 00:12:31;;;;;;;;;;;19.40;69.10;;;;;;7305830;19;9563;-60
2024/01/04 00:15:03;;;;;;;;;;;19.30;69.00;;;;;;7313350;19;10792;-61
2024/01/04 00:17:32;;;;;;;;;;;19.30;69.10;;;;;;7312304;19;9324;-61
2024/01/04 00:20:01;;;;;;;;;;;19.20;69.20;;;;;;7312164;19;9526;-61
2024/01/04 00:22:32;;;;;;;;;;;19.10;69.10;;;;;;7320334;19;9597;-61
2024/01/04 00:25:01;;;;;;;;;;;19.10;69.30;;;;;;7322837;19;9609;-61
2024/01/04 00:27:30;;;;;;;;;;;19.10;69.40;;;;;;7319374;19;10723;-61
2024/01/04 00:29:59;;;;;;;;;;;19.00;69.40;;;;;;7319788;19;9401;-62
2024/01/04 00:32:29;;;;;;;;;;;19.00;69.40;;;;;;7320705;19;10858;-60
2024/01/04 00:34:58;;;;;;;;;;;19.00;69.40;;;;;;7322995;19;9469;-61
2024/01/04 00:37:27;;;;;;;;;;;19.00;69.40;;;;;;7320049;19;9270;-61
2024/01/04 00:39:58;;;;;;;;;;;19.00;69.40;;;;;;7322887;19;9515;-61
2024/01/04 00:42:27;;;;;;;;;;;19.10;69.50;;;;;;7321624;19;9301;-61
2024/01/04 00:44:56;;;;;;;;;;;19.10;69.50;;;;;;7323158;19;9589;-61
2024/01/04 00:47:25;;;;;;;;;;;19.10;69.40;;;;;;7321835;19;9447;-61
2024/01/04 00:50:14;;;;;;;;;;;19.10;69.40;;;;;;7319437;19;9331;-61
2024/01/04 00:52:43;;;;;;;;;;;19.10;69.30;;;;;;7321593;19;9185;-61
2024/01/04 00:55:15;;;;;;;;;;;19.20;69.30;;;;;;7319036;19;9512;-61
2024/01/04 00:57:44;;;;;;;;;;;19.20;69.20;;;;;;7320181;19;9425;-61
2024/01/04 01:00:14;;;;;;;;;;;19.30;69.20;;;;;;7322780;19;9456;-62
2024/01/04 01:02:43;;;;;;;;;;;19.30;69.20;;;;;;7321318;19;9509;-61
2024/01/04 01:05:12;;;;;;;;;;;19.30;69.10;;;;;;7322499;19;9505;-61
2024/01/04 01:07:41;;;;;;;;;;;19.40;69.10;;;;;;7320602;19;12314;-61
2024/01/04 01:10:10;;;;;;;;;;;19.40;68.90;;;;;;7320502;19;9444;-60
2024/01/04 01:12:42;;;;;;;;;;;19.50;68.90;;;;;;7321864;19;9273;-61
2024/01/04 01:15:12;;;;;;;;;;;19.50;68.80;;;;;;7318695;19;9524;-61
2024/01/04 01:17:41;;;;;;;;;;;19.60;68.90;;;;;;7320264;19;9497;-61
2024/01/04 01:20:11;;;;;;;;;;;19.60;68.80;;;;;;7319115;19;9258;-60
2024/01/04 01:22:40;;;;;;;;;;;19.60;68.80;;;;;;7320151;19;9743;-61
2024/01/04 01:25:10;;;;;;;;;;;19.60;68.70;;;;;;7321065;19;9261;-61
2024/01/04 01:27:42;;;;;;;;;;;19.60;68.60;;;;;;7320706;19;9507;-60
2024/01/04 01:30:12;;;;;;;;;;;19.60;68.60;;;;;;7321670;19;9116;-61
2024/01/04 01:33:01;;;;;;;;;;;19.60;68.50;;;;;;7315660;19;9665;-59
2024/01/04 01:35:30;;;;;;;;;;;19.60;68.50;;;;;;7319186;19;9473;-59
2024/01/04 01:37:59;;;;;;;;;;;19.50;68.60;;;;;;7317955;19;9465;-59
2024/01/04 01:40:31;;;;;;;;;;;19.50;68.70;;;;;;7320766;19;9493;-59
2024/01/04 01:43:02;;;;;;;;;;;19.50;68.50;;;;;;7320639;19;9482;-59
2024/01/04 01:45:31;;;;;;;;;;;19.50;68.40;;;;;;7316995;19;9254;-59
2024/01/04 01:48:00;;;;;;;;;;;19.50;68.50;;;;;;7322068;19;9427;-59
2024/01/04 01:50:29;;;;;;;;;;;19.40;68.30;;;;;;7320087;19;9344;-59
2024/01/04 01:52:58;;;;;;;;;;;19.40;68.30;;;;;;7317635;19;9149;-60
2024/01/04 01:55:28;;;;;;;;;;;19.30;68.20;;;;;;7317681;19;9670;-59
2024/01/04 01:57:57;;;;;;;;;;;19.30;68.20;;;;;;7319036;19;9471;-59
2024/01/04 02:00:29;;;;;;;;;;;19.20;68.20;;;;;;7313046;19;9660;-59
2024/01/04 02:03:20;;;;;;;;;;;19.10;68.20;;;;;;7316599;19;9517;-60
2024/01/04 02:05:49;;;;;;;;;;;19.10;68.30;;;;;;7321263;19;9469;-60
2024/01/04 02:08:18;;;;;;;;;;;19.10;68.40;;;;;;7318781;19;9658;-60
2024/01/04 02:10:48;;;;;;;;;;;19.00;68.40;;;;;;7320205;19;9131;-60
2024/01/04 02:13:17;;;;;;;;;;;19.00;68.40;;;;;;7316019;19;10024;-59
2024/01/04 02:15:50;;;;;;;;;;;19.00;68.50;;;;;;7319809;19;9461;-59
2024/01/04 02:18:17;;;;;;;;;;;19.00;68.60;;;;;;7312695;19;9521;-59
2024/01/04 02:20:46;;;;;;;;;;;19.00;68.60;;;;;;7318849;19;9424;-59
2024/01/04 02:23:20;;;;;;;;;;;19.00;68.50;;;;;;7318882;19;9211;-59
2024/01/04 02:25:49;;;;;;;;;;;19.10;68.60;;;;;;7313359;19;9633;-59
2024/01/04 02:28:18;;;;;;;;;;;19.10;68.50;;;;;;7320099;19;9234;-59
2024/01/04 02:30:47;;;;;;;;;;;19.10;69.00;;;;;;7319386;19;9153;-59
2024/01/04 02:33:16;;;;;;;;;;;19.10;68.50;;;;;;7320729;19;9209;-59
2024/01/04 02:35:45;;;;;;;;;;;19.20;68.40;;;;;;7311068;19;9672;-60
2024/01/04 02:38:14;;;;;;;;;;;19.20;68.40;;;;;;7316714;19;9821;-60
2024/01/04 02:40:46;;;;;;;;;;;19.20;68.20;;;;;;7318146;19;9320;-61
2024/01/04 02:43:17;;;;;;;;;;;19.30;68.40;;;;;;7313451;19;9506;-61
2024/01/04 02:45:46;;;;;;;;;;;19.30;68.20;;;;;;7317022;19;9315;-60
2024/01/04 02:48:14;;;;;;;;;;;19.30;68.10;;;;;;7318938;19;9628;-60
2024/01/04 02:50:43;;;;;;;;;;;19.40;68.20;;;;;;7316785;19;10692;-60
2024/01/04 02:53:12;;;;;;;;;;;19.50;68.10;;;;;;7307622;19;9670;-60
2024/01/04 02:55:41;;;;;;;;;;;19.50;68.10;;;;;;7315188;19;9564;-60
2024/01/04 02:58:13;;;;;;;;;;;19.50;68.00;;;;;;7312971;19;9628;-61
2024/01/04 03:00:42;;;;;;;;;;;19.50;67.90;;;;;;7317733;19;10761;-60
2024/01/04 03:03:11;;;;;;;;;;;19.60;67.90;;;;;;7314298;19;9373;-61
2024/01/04 03:05:39;;;;;;;;;;;19.60;68.30;;;;;;7317255;19;9738;-61
2024/01/04 03:08:09;;;;;;;;;;;19.60;68.30;;;;;;7316320;19;9888;-61
2024/01/04 03:10:38;;;;;;;;;;;19.60;67.70;;;;;;7314238;19;9234;-61
2024/01/04 03:13:09;;;;;;;;;;;19.60;67.70;;;;;;7311142;19;9750;-61
2024/01/04 03:15:40;;;;;;;;;;;19.60;67.70;;;;;;7314818;19;9250;-60
2024/01/04 03:18:10;;;;;;;;;;;19.60;67.90;;;;;;7317633;19;10419;-60
2024/01/04 03:20:40;;;;;;;;;;;19.50;67.70;;;;;;7318442;19;10618;-61
2024/01/04 03:23:08;;;;;;;;;;;19.50;67.60;;;;;;7317923;19;9590;-60
2024/01/04 03:25:37;;;;;;;;;;;19.50;67.70;;;;;;7315342;19;9554;-61
2024/01/04 03:28:07;;;;;;;;;;;19.40;67.60;;;;;;7317780;19;9642;-59
2024/01/04 03:30:36;;;;;;;;;;;19.40;67.60;;;;;;7308459;19;9339;-61
2024/01/04 03:33:07;;;;;;;;;;;19.30;67.40;;;;;;7316648;19;9564;-61
2024/01/04 03:35:36;;;;;;;;;;;19.30;67.50;;;;;;7317337;19;9486;-61
2024/01/04 03:38:05;;;;;;;;;;;19.30;67.60;;;;;;7318564;19;9694;-60
2024/01/04 03:40:34;;;;;;;;;;;19.20;67.60;;;;;;7315598;19;9748;-61
2024/01/04 03:43:04;;;;;;;;;;;19.20;67.70;;;;;;7318033;19;9506;-60
2024/01/04 03:45:33;;;;;;;;;;;19.10;67.70;;;;;;7314997;19;9577;-60
2024/01/04 03:48:02;;;;;;;;;;;19.00;67.70;;;;;;7311166;19;9521;-60
2024/01/04 03:50:34;;;;;;;;;;;19.00;67.90;;;;;;7313786;19;9399;-61
2024/01/04 03:53:03;;;;;;;;;;;19.00;67.90;;;;;;7315990;19;9255;-60
2024/01/04 03:55:32;;;;;;;;;;;19.00;67.90;;;;;;7313948;19;9458;-60
2024/01/04 03:58:00;;;;;;;;;;;19.00;67.90;;;;;;7314928;19;9669;-61
2024/01/04 04:00:30;;;;;;;;;;;19.00;67.90;;;;;;7314626;19;9580;-60
2024/01/04 04:02:59;;;;;;;;;;;19.00;68.00;;;;;;7317407;19;9486;-61
2024/01/04 04:05:28;;;;;;;;;;;19.00;68.10;;;;;;7316756;19;9294;-61
2024/01/04 04:07:59;;;;;;;;;;;19.10;68.10;;;;;;7308518;19;9425;-61
2024/01/04 04:10:28;;;;;;;;;;;19.10;68.10;;;;;;7315664;19;9483;-60
2024/01/04 04:12:57;;;;;;;;;;;19.10;67.90;;;;;;7317039;19;9360;-61
2024/01/04 04:15:26;;;;;;;;;;;19.10;67.90;;;;;;7315416;19;9646;-60
2024/01/04 04:17:55;;;;;;;;;;;19.20;68.00;;;;;;7316794;19;9309;-60
2024/01/04 04:20:45;;;;;;;;;;;19.30;67.90;;;;;;7315130;19;9537;-61
2024/01/04 04:23:16;;;;;;;;;;;19.30;67.80;;;;;;7307720;19;9264;-61
2024/01/04 04:25:45;;;;;;;;;;;19.30;67.70;;;;;;7312925;19;9465;-61
2024/01/04 04:28:16;;;;;;;;;;;19.40;67.60;;;;;;7314981;19;9678;-61
2024/01/04 04:30:45;;;;;;;;;;;19.40;67.70;;;;;;7314409;19;9451;-61
2024/01/04 04:33:14;;;;;;;;;;;19.40;67.50;;;;;;7315142;19;9461;-60
2024/01/04 04:35:43;;;;;;;;;;;19.50;67.60;;;;;;7315718;19;9735;-61
2024/01/04 04:38:12;;;;;;;;;;;19.50;67.60;;;;;;7315968;19;9587;-60
2024/01/04 04:40:44;;;;;;;;;;;19.50;67.50;;;;;;7313791;19;9309;-60
2024/01/04 04:43:13;;;;;;;;;;;19.60;67.40;;;;;;7306507;19;10602;-60
2024/01/04 04:45:42;;;;;;;;;;;19.60;67.40;;;;;;7311908;19;10709;-60
2024/01/04 04:48:11;;;;;;;;;;;19.60;67.30;;;;;;7313390;19;9585;-60
2024/01/04 04:50:40;;;;;;;;;;;19.60;67.20;;;;;;7315721;19;9317;-60
2024/01/04 04:53:08;;;;;;;;;;;19.60;67.40;;;;;;7314382;19;9474;-60
2024/01/04 04:56:00;;;;;;;;;;;19.50;67.20;;;;;;7313455;19;9561;-60
2024/01/04 04:58:30;;;;;;;;;;;19.50;67.20;;;;;;7315418;19;9637;-60
2024/01/04 05:00:59;;;;;;;;;;;19.50;67.30;;;;;;7307134;19;9590;-60
2024/01/04 05:03:28;;;;;;;;;;;19.50;67.20;;;;;;7313682;19;9680;-61
2024/01/04 05:05:57;;;;;;;;;;;19.40;67.10;;;;;;7312567;19;9434;-61
2024/01/04 05:08:26;;;;;;;;;;;19.40;67.10;;;;;;7320552;19;9511;-60
2024/01/04 05:10:55;;;;;;;;;;;19.30;67.00;;;;;;7319834;19;9462;-60
2024/01/04 05:13:26;;;;;;;;;;;19.30;67.10;;;;;;7320088;19;9711;-60
2024/01/04 05:15:55;;;;;;;;;;;19.20;67.10;;;;;;7314430;19;12037;-60
2024/01/04 05:18:24;;;;;;;;;;;19.20;67.20;;;;;;7320251;19;9746;-61
2024/01/04 05:20:54;;;;;;;;;;;19.20;67.30;;;;;;7319727;19;9005;-60
2024/01/04 05:23:23;;;;;;;;;;;19.10;67.40;;;;;;7320481;19;9516;-61
2024/01/04 05:25:52;;;;;;;;;;;19.00;67.40;;;;;;7318137;19;9450;-60
2024/01/04 05:28:21;;;;;;;;;;;19.00;67.50;;;;;;7320618;19;9475;-61
2024/01/04 05:30:52;;;;;;;;;;;19.00;67.50;;;;;;7320699;19;9556;-61
2024/01/04 05:33:21;;;;;;;;;;;19.00;67.60;;;;;;7312705;19;9222;-61
2024/01/04 05:35:51;;;;;;;;;;;18.90;67.60;;;;;;7317610;19;9678;-61
2024/01/04 05:38:22;;;;;;;;;;;18.90;68.40;;;;;;7320223;19;10403;-61
2024/01/04 05:40:51;;;;;;;;;;;19.00;67.90;;;;;;7319646;19;9247;-60
2024/01/04 05:43:20;;;;;;;;;;;19.00;67.70;;;;;;7318953;19;9449;-62
2024/01/04 05:45:51;;;;;;;;;;;19.10;67.60;;;;;;7319400;19;9265;-61
2024/01/04 05:48:20;;;;;;;;;;;19.10;67.70;;;;;;7320192;19;9374;-61
2024/01/04 05:50:47;;;;;;;;;;;19.10;67.60;;;;;;7313972;19;9445;-60
2024/01/04 05:53:17;;;;;;;;;;;19.20;67.70;;;;;;7316130;19;10262;-61
2024/01/04 05:55:46;;;;;;;;;;;19.20;67.60;;;;;;7320788;19;9494;-60
2024/01/04 05:58:15;;;;;;;;;;;19.20;67.60;;;;;;7320155;19;9513;-60
2024/01/04 06:00:43;;;;;;;;;;;19.30;67.50;;;;;;7321199;19;9522;-60
2024/01/04 06:03:16;;;;;;;;;;;19.30;67.50;;;;;;7320917;19;9399;-62
2024/01/04 06:05:45;;;;;;;;;;;19.40;67.50;;;;;;7319952;19;9534;-60
2024/01/04 06:08:14;;;;;;;;;;;19.40;67.30;;;;;;7317423;19;9458;-60
2024/01/04 06:10:43;;;;;;;;;;;19.50;67.40;;;;;;7314408;19;9401;-60
2024/01/04 06:13:12;;;;;;;;;;;19.50;67.30;;;;;;7318050;19;9525;-60
2024/01/04 06:15:41;;;;;;;;;;;19.50;67.20;;;;;;7319047;19;9533;-60
2024/01/04 06:18:10;;;;;;;;;;;19.60;67.20;;;;;;7317227;19;9477;-60
2024/01/04 06:20:43;;;;;;;;;;;19.60;67.10;;;;;;7320426;19;10268;-61
2024/01/04 06:23:12;;;;;;;;;;;19.60;67.10;;;;;;7319682;19;9292;-61
2024/01/04 06:25:41;;;;;;;;;;;19.60;67.10;;;;;;7320280;19;10803;-60
2024/01/04 06:28:10;;;;;;;;;;;19.60;67.10;;;;;;7318340;19;9556;-60
2024/01/04 06:30:39;;;;;;;;;;;19.60;67.00;;;;;;7312994;19;9473;-60
2024/01/04 06:33:28;;;;;;;;;;;19.60;67.10;;;;;;7315717;19;9549;-61
2024/01/04 06:36:01;;;;;;;;;;;19.50;67.00;;;;;;7317353;19;9305;-60
2024/01/04 06:38:30;;;;;;;;;;;19.50;67.00;;;;;;7317367;19;10948;-62
2024/01/04 06:40:59;;;;;;;;;;;19.50;67.00;;;;;;7317910;19;9551;-60
2024/01/04 06:43:28;;;;;;;;;;;19.40;67.00;;;;;;7319047;19;10426;-61
2024/01/04 06:45:57;;;;;;;;;;;19.40;67.50;;;;;;7317724;19;9512;-60
2024/01/04 06:48:27;;;;;;;;;;;19.30;66.80;;;;;;7318634;19;9635;-61
2024/01/04 06:50:58;;;;;;;;;;;19.30;66.90;;;;;;7318817;19;9444;-61
2024/01/04 06:53:27;;;;;;;;;;;19.20;66.90;;;;;;7318501;19;9545;-61
2024/01/04 06:55:56;;;;;;;;;;;19.20;67.00;;;;;;7318378;19;9340;-61
2024/01/04 06:58:25;;;;;;;;;;;19.10;67.00;;;;;;7315525;19;9472;-61
2024/01/04 07:00:56;;;;;;;;;;;19.10;67.10;;;;;;7317923;19;9359;-61
2024/01/04 07:03:46;;;;;;;;;;;19.00;67.10;;;;;;7317946;19;9577;-60
2024/01/04 07:06:18;;;;;;;;;;;19.00;67.20;;;;;;7318110;19;10441;-60
2024/01/04 07:08:48;;;;;;;;;;;19.00;67.30;;;;;;7317312;19;9391;-61
2024/01/04 07:11:17;;;;;;;;;;;19.00;67.40;;;;;;7318459;19;9467;-60
2024/01/04 07:13:45;;;;;;;;;;;18.90;67.40;;;;;;7319714;19;9245;-61
2024/01/04 07:16:14;;;;;;;;;;;19.00;67.40;;;;;;7315131;19;9327;-64
2024/01/04 07:18:43;;;;;;;;;;;19.00;67.50;;;;;;7318662;19;9681;-61
2024/01/04 07:21:13;;;;;;;;;;;19.00;67.50;;;;;;7319027;19;9219;-61
2024/01/04 07:23:45;;;;;;;;;;;19.00;67.50;;;;;;7319100;19;9580;-60
2024/01/04 07:26:14;;;;;;;;;;;19.10;67.40;;;;;;7312238;19;9228;-60
2024/01/04 07:28:43;;;;;;;;;;;19.10;67.50;;;;;;7317537;19;9274;-61
2024/01/04 07:31:12;;;;;;;;;;;19.20;67.40;;;;;;7318132;19;9620;-60
2024/01/04 07:33:41;;;;;;;;;;;19.20;67.50;;;;;;7304670;19;9476;-61
2024/01/04 07:36:10;;;;;;;;;;;19.20;67.40;;;;;;7305514;19;9287;-60
2024/01/04 07:38:39;;;;;;;;;;;19.30;67.20;;;;;;7307219;19;10454;-60
2024/01/04 07:41:11;;;;;;;;;;;19.30;67.20;;;;;;7315213;19;9477;-61
2024/01/04 07:43:40;;;;;;;;;;;19.40;67.20;;;;;;7308637;19;9576;-60
2024/01/04 07:46:09;;;;;;;;;;;19.40;67.10;;;;;;7312239;19;9460;-61
2024/01/04 07:48:38;;;;;;;;;;;19.50;67.10;;;;;;7314814;19;9408;-60
2024/01/04 07:51:07;;;;;;;;;;;19.50;67.30;;;;;;7316618;19;9302;-61
2024/01/04 07:53:36;;;;;;;;;;;19.60;67.10;;;;;;7317805;19;9650;-60
2024/01/04 07:56:05;;;;;;;;;;;19.60;67.00;;;;;;7316722;19;9469;-60
2024/01/04 07:58:36;;;;;;;;;;;19.60;67.00;;;;;;7315746;19;9476;-60
2024/01/04 08:01:06;;;;;;;;;;;19.60;67.00;;;;;;7307841;19;9295;-62
2024/01/04 08:03:35;;;;;;;;;;;19.60;66.90;;;;;;7313839;19;9507;-61
2024/01/04 08:06:03;;;;;;;;;;;19.60;66.90;;;;;;7313267;19;9667;-60
2024/01/04 08:08:33;;;;;;;;;;;19.60;66.90;;;;;;7317535;19;9719;-60
2024/01/04 08:11:02;;;;;;;;;;;19.60;66.90;;;;;;7315999;19;9382;-60
2024/01/04 08:13:32;;;;;;;;;;;19.50;66.90;;;;;;7316714;19;9466;-61
2024/01/04 08:16:04;;;;;;;;;;;19.50;67.10;;;;;;7311398;19;9651;-61
2024/01/04 08:18:35;;;;;;;;;;;19.50;66.80;;;;;;7311484;19;9323;-61
2024/01/04 08:21:07;;;;;;;;;;;19.50;66.80;;;;;;7312339;19;9599;-60
2024/01/04 08:23:35;;;;;;;;;;;19.40;66.80;;;;;;7308844;19;10732;-61
2024/01/04 08:26:27;;;;;;;;;;;19.40;66.80;;;;;;7311044;19;9501;-60
2024/01/04 08:28:56;;;;;;;;;;;19.30;66.80;;;;;;7313172;19;10319;-61
2024/01/04 08:31:27;;;;;;;;;;;19.30;66.90;;;;;;7316252;19;9460;-61
2024/01/04 08:33:56;;;;;;;;;;;19.20;67.00;;;;;;7316661;19;9548;-60
2024/01/04 08:36:25;;;;;;;;;;;19.10;67.00;;;;;;7312723;19;9772;-60
2024/01/04 08:38:54;;;;;;;;;;;19.10;67.20;;;;;;7295760;19;10438;-59
2024/01/04 08:41:23;;;;;;;;;;;19.10;67.30;;;;;;7314338;19;9582;-59
2024/01/04 08:43:52;;;;;;;;;;;19.00;67.30;;;;;;7320860;19;9246;-59
2024/01/04 08:46:21;;;;;;;;;;;19.00;67.40;;;;;;7322188;19;9593;-59
2024/01/04 08:48:52;;;;;;;;;;;18.90;67.40;;;;;;7319131;19;9508;-60
2024/01/04 08:51:21;;;;;;;;;;;18.90;67.50;;;;;;7322611;19;9581;-59
2024/01/04 08:53:51;;;;;;;;;;;18.90;67.60;;;;;;7320368;19;9634;-60
2024/01/04 08:56:21;;;;;;;;;;;19.00;67.60;;;;;;7320442;19;9625;-60
2024/01/04 08:58:50;;;;;;;;;;;19.00;67.60;;;;;;7321249;19;9652;-59
2024/01/04 09:01:19;;;;;;;;;;;19.00;67.50;;;;;;7310283;19;9723;-60
2024/01/04 09:03:48;;;;;;;;;;;19.10;67.80;;;;;;7316341;19;9588;-61
2024/01/04 09:06:20;;;;;;;;;;;19.10;67.70;;;;;;7313413;19;9419;-63
2024/01/04 09:08:49;;;;;;;;;;;19.20;67.80;;;;;;7318548;19;9625;-64
2024/01/04 09:11:41;;;;;;;;;;;19.20;67.70;;;;;;7318241;19;9294;-61
2024/01/04 09:14:11;;;;;;;;;;;19.30;67.70;;;;;;7320400;19;9161;-61
2024/01/04 09:16:43;;;;;;;;;;;19.30;67.60;;;;;;7321496;19;9474;-61
2024/01/04 09:19:15;;;;;;;;;;;19.40;67.60;;;;;;7319805;19;9536;-60
2024/01/04 09:21:49;;;;;;;;;;;19.50;67.50;;;;;;7315176;19;9293;-61
2024/01/04 09:24:20;;;;;;;;;;;19.50;67.50;;;;;;7320687;19;9451;-60
2024/01/04 09:26:50;;;;;;;;;;;19.60;67.50;;;;;;7320103;19;9461;-60
2024/01/04 09:29:19;;;;;;;;;;;19.60;67.40;;;;;;7321012;19;10312;-60
2024/01/04 09:31:48;;;;;;;;;;;19.60;67.40;;;;;;7315549;19;9402;-59
2024/01/04 09:34:17;;;;;;;;;;;19.70;67.40;;;;;;7320090;19;9509;-61
2024/01/04 09:36:49;;;;;;;;;;;19.70;67.40;;;;;;7319737;19;9688;-61
2024/01/04 09:39:18;;;;;;;;;;;19.80;67.30;;;;;;7321569;19;9555;-58
2024/01/04 09:41:50;;;;;;;;;;;19.90;67.20;;;;;;7319066;19;9464;-60
2024/01/04 09:44:19;;;;;;;;;;;20.00;67.30;;;;;;7320287;19;9477;-60
2024/01/04 09:46:49;;;;;;;;;;;20.00;67.20;;;;;;7318932;19;9352;-60
2024/01/04 09:49:18;;;;;;;;;;;20.00;67.20;;;;;;7319601;19;9458;-63
2024/01/04 09:52:11;;;;;;;;;;;20.00;67.10;;;;;;7317742;19;9590;-59
2024/01/04 09:54:43;;;;;;;;;;;20.10;67.20;;;;;;7314301;19;9465;-62
2024/01/04 09:57:33;;;;;;;;;;;20.10;67.10;;;;;;7312380;19;10165;-61
2024/01/04 10:00:03;;;;;;;;;;;20.10;67.20;;;;;;7316989;19;9562;-59
2024/01/04 10:02:39;;;;;;;;;;;20.10;67.20;;;;;;7317316;19;9376;-58
2024/01/04 10:05:09;;;;;;;;;;;20.20;67.30;;;;;;7317062;19;9513;-60
2024/01/04 10:07:47;;;;;;;;;;;20.20;67.30;;;;;;7316222;19;9788;-59
2024/01/04 10:10:21;;;;;;;;;;;20.10;67.30;;;;;;7312057;19;9478;-58
2024/01/04 10:12:53;;;;;;;;;;;20.20;67.30;;;;;;7317204;19;9241;-57
2024/01/04 10:15:22;;;;;;;;;;;20.10;67.80;;;;;;7313550;19;10824;-57
2024/01/04 10:17:54;;;;;;;;;;;20.10;67.40;;;;;;7312872;19;9449;-57
2024/01/04 10:20:23;;;;;;;;;;;20.10;67.40;;;;;;7319438;19;9437;-57
2024/01/04 10:22:55;;;;;;;;;;;20.00;67.50;;;;;;7315244;19;9364;-57
2024/01/04 10:25:25;;;;;;;;;;;20.00;67.60;;;;;;7316506;19;9254;-56
2024/01/04 10:27:59;;;;;;;;;;;20.00;67.70;;;;;;7307817;19;9282;-67
2024/01/04 10:30:57;;;;;;;;;;;20.00;68.30;;;;;;7316231;19;9261;-70
2024/01/04 10:33:26;;;;;;;;;;;19.90;67.70;;;;;;7317951;19;10201;-70
2024/01/04 10:35:55;;;;;;;;;;;19.90;67.80;;;;;;7319244;19;9420;-70
2024/01/04 10:38:27;;;;;;;;;;;19.90;67.90;;;;;;7315462;19;9512;-70
2024/01/04 10:41:02;;;;;;;;;;;19.90;68.00;;;;;;7318457;19;9245;-70
2024/01/04 10:43:30;;;;;;;;;;;19.80;68.00;;;;;;7319457;19;10526;-70
2024/01/04 10:46:07;;;;;;;;;;;19.70;68.10;;;;;;7320519;19;9224;-70
2024/01/04 10:48:37;;;;;;;;;;;19.70;68.10;;;;;;7315435;19;11007;-70
2024/01/04 10:51:09;;;;;;;;;;;19.70;68.20;;;;;;7316712;19;10306;-70
2024/01/04 10:53:41;;;;;;;;;;;19.70;68.20;;;;;;7314301;19;9892;-70
2024/01/04 10:56:10;;;;;;;;;;;19.70;68.20;;;;;;7319642;19;9281;-70
2024/01/04 10:58:40;;;;;;;;;;;19.70;68.20;;;;;;7315902;19;9281;-70
2024/01/04 11:01:09;;;;;;;;;;;19.70;68.20;;;;;;7317202;19;10127;-70
2024/01/04 11:03:42;;;;;;;;;;;19.70;68.20;;;;;;7316169;19;10014;-69
2024/01/04 11:06:12;;;;;;;;;;;19.80;68.30;;;;;;7317867;19;9215;-69
2024/01/04 11:08:44;;;;;;;;;;;19.80;68.20;;;;;;7315255;19;10182;-69
2024/01/04 11:11:15;;;;;;;;;;;19.90;68.20;;;;;;7301088;19;9499;-70
2024/01/04 11:13:44;;;;;;;;;;;20.00;68.20;;;;;;7312271;19;9264;-69
2024/01/04 11:16:56;;;;;;;;;;;20.00;68.20;;;;;;7313155;19;9523;-69
2024/01/04 11:19:42;;;;;;;;;;;20.00;68.10;;;;;;7318005;19;10079;-70
2024/01/04 11:22:29;;;;;;;;;;;20.10;68.10;;;;;;7312514;19;10266;-69
2024/01/04 11:25:13;;;;;;;;;;;20.10;68.00;;;;;;7316493;19;11300;-69
2024/01/04 11:27:44;;;;;;;;;;;20.20;67.90;;;;;;7315042;19;9130;-69
2024/01/04 11:30:15;;;;;;;;;;;20.30;67.90;;;;;;7311621;19;9303;-69
2024/01/04 11:32:46;;;;;;;;;;;20.30;67.90;;;;;;7313585;19;10082;-69
2024/01/04 11:35:15;;;;;;;;;;;20.30;67.90;;;;;;7319286;19;9166;-69
2024/01/04 11:37:53;;;;;;;;;;;20.40;67.90;;;;;;7317097;19;10272;-69
2024/01/04 11:40:30;;;;;;;;;;;20.40;67.90;;;;;;7315227;19;9304;-69
2024/01/04 11:43:00;;;;;;;;;;;20.40;67.90;;;;;;7316861;19;10061;-68
2024/01/04 11:45:29;;;;;;;;;;;20.40;67.90;;;;;;7315115;19;10485;-69
2024/01/04 11:47:58;;;;;;;;;;;20.30;67.90;;;;;;7310298;19;9481;-68
2024/01/04 11:50:28;;;;;;;;;;;20.30;67.90;;;;;;7317376;19;9301;-71
2024/01/04 11:53:06;;;;;;;;;;;20.30;68.00;;;;;;7313217;19;9171;-68
2024/01/04 11:55:38;;;;;;;;;;;20.30;68.00;;;;;;7317696;19;11144;-69
2024/01/04 11:58:08;;;;;;;;;;;20.20;68.00;;;;;;7317043;19;9115;-68
2024/01/04 12:00:36;;;;;;;;;;;20.20;68.00;;;;;;7314243;19;10399;-71
2024/01/04 12:03:14;;;;;;;;;;;20.20;68.10;;;;;;7317809;19;9616;-71
2024/01/04 12:05:45;;;;;;;;;;;20.10;68.20;;;;;;7318291;19;9241;-72
2024/01/04 12:08:25;;;;;;;;;;;20.10;68.20;;;;;;7316598;19;13475;-68
2024/01/04 12:11:00;;;;;;;;;;;20.00;68.30;;;;;;7311509;19;10074;-68
2024/01/04 12:13:30;;;;;;;;;;;20.00;68.30;;;;;;7316710;19;11179;-68
2024/01/04 12:15:59;;;;;;;;;;;20.00;68.40;;;;;;7292884;19;9211;-69
2024/01/04 12:18:29;;;;;;;;;;;20.00;68.40;;;;;;7319113;19;9526;-69
2024/01/04 12:20:59;;;;;;;;;;;20.00;68.40;;;;;;7321086;19;9336;-69
2024/01/04 12:23:28;;;;;;;;;;;20.00;68.50;;;;;;7317141;19;9187;-68
2024/01/04 12:26:00;;;;;;;;;;;19.90;68.50;;;;;;7323432;19;9215;-68
2024/01/04 12:28:29;;;;;;;;;;;19.90;68.60;;;;;;7321505;19;9502;-68
2024/01/04 12:30:59;;;;;;;;;;;19.80;68.70;;;;;;7325005;19;10237;-69
2024/01/04 12:33:31;;;;;;;;;;;19.70;68.70;;;;;;7319277;19;9533;-69
2024/01/04 12:36:01;;;;;;;;;;;19.70;68.80;;;;;;7320846;19;10213;-73
2024/01/04 12:38:30;;;;;;;;;;;19.70;69.00;;;;;;7320742;19;10129;-71
2024/01/04 12:41:01;;;;;;;;;;;19.60;69.00;;;;;;7322114;19;9170;-70
2024/01/04 12:43:32;;;;;;;;;;;19.60;69.20;;;;;;7324284;19;10003;-70
2024/01/04 12:46:05;;;;;;;;;;;19.60;69.20;;;;;;7318772;19;9395;-72
2024/01/04 12:48:35;;;;;;;;;;;19.50;69.20;;;;;;7319853;19;9288;-73
2024/01/04 12:51:14;;;;;;;;;;;19.60;69.20;;;;;;7319858;19;9229;-71
2024/01/04 12:53:45;;;;;;;;;;;19.60;69.30;;;;;;7321092;19;11140;-71
2024/01/04 12:56:19;;;;;;;;;;;19.60;69.20;;;;;;7322893;19;9285;-68
2024/01/04 12:58:49;;;;;;;;;;;19.70;69.10;;;;;;7320132;19;9304;-68
2024/01/04 13:01:18;;;;;;;;;;;19.70;69.10;;;;;;7320318;19;11149;-71
2024/01/04 13:03:49;;;;;;;;;;;19.70;69.00;;;;;;7322641;19;10426;-72
2024/01/04 13:06:18;;;;;;;;;;;19.80;69.10;;;;;;7321853;19;10026;-71
2024/01/04 13:08:50;;;;;;;;;;;19.80;69.00;;;;;;7322179;19;9119;-69
2024/01/04 13:11:21;;;;;;;;;;;19.90;68.90;;;;;;7319892;19;9233;-71
2024/01/04 13:13:51;;;;;;;;;;;19.90;68.80;;;;;;7321904;19;9255;-70
2024/01/04 13:16:20;;;;;;;;;;;20.00;68.80;;;;;;7321662;19;9166;-70
2024/01/04 13:18:49;;;;;;;;;;;20.00;68.80;;;;;;7320809;19;9734;-70
2024/01/04 13:21:18;;;;;;;;;;;20.00;68.70;;;;;;7320620;19;10088;-71
2024/01/04 13:23:50;;;;;;;;;;;20.10;68.60;;;;;;7322733;19;9254;-70
2024/01/04 13:26:21;;;;;;;;;;;20.10;68.60;;;;;;7320387;19;9506;-69
2024/01/04 13:28:50;;;;;;;;;;;20.20;68.60;;;;;;7319884;19;10151;-69
2024/01/04 13:31:40;;;;;;;;;;;20.20;68.50;;;;;;7319520;19;10997;-73
2024/01/04 13:34:09;;;;;;;;;;;20.30;68.50;;;;;;7321954;19;9309;-73
2024/01/04 13:36:38;;;;;;;;;;;20.30;69.20;;;;;;7320941;19;9245;-75
2024/01/04 13:39:10;;;;;;;;;;;20.30;68.50;;;;;;7318906;19;10042;-74
2024/01/04 13:41:44;;;;;;;;;;;20.30;68.50;;;;;;7319107;19;11164;-68
2024/01/04 13:44:13;;;;;;;;;;;20.30;68.60;;;;;;7316264;19;11057;-68
2024/01/04 13:46:42;;;;;;;;;;;20.30;68.60;;;;;;7311916;19;10091;-68
2024/01/04 13:49:11;;;;;;;;;;;20.20;68.50;;;;;;7320813;19;10316;-68
2024/01/04 13:51:41;;;;;;;;;;;20.20;68.50;;;;;;7320020;19;9245;-68
2024/01/04 13:54:30;;;;;;;;;;;20.20;68.50;;;;;;7311778;19;10048;-68
2024/01/04 13:57:02;;;;;;;;;;;20.20;68.50;;;;;;7317828;19;10201;-68
2024/01/04 13:59:32;;;;;;;;;;;20.20;68.60;;;;;;7319291;19;10095;-67
2024/01/04 14:02:01;;;;;;;;;;;20.20;68.70;;;;;;7315071;19;9540;-68
2024/01/04 14:04:29;;;;;;;;;;;20.10;68.60;;;;;;7315292;19;9616;-68
2024/01/04 14:06:58;;;;;;;;;;;20.10;68.70;;;;;;7318891;19;9582;-71
2024/01/04 14:09:27;;;;;;;;;;;20.00;68.70;;;;;;7321231;19;11058;-71
2024/01/04 14:11:56;;;;;;;;;;;20.00;68.80;;;;;;7318694;19;9133;-72
2024/01/04 14:14:28;;;;;;;;;;;20.00;69.00;;;;;;7320224;19;10074;-72
2024/01/04 14:16:57;;;;;;;;;;;19.90;69.00;;;;;;7322710;19;9254;-73
2024/01/04 14:19:26;;;;;;;;;;;19.90;69.10;;;;;;7319823;19;10473;-72
2024/01/04 14:21:55;;;;;;;;;;;19.80;69.20;;;;;;7318587;19;9333;-72
2024/01/04 14:24:24;;;;;;;;;;;19.80;69.30;;;;;;7320095;19;9265;-71
2024/01/04 14:26:53;;;;;;;;;;;19.70;69.30;;;;;;7320774;19;9222;-72
2024/01/04 14:29:22;;;;;;;;;;;19.70;69.40;;;;;;7319508;19;9318;-75
2024/01/04 14:31:54;;;;;;;;;;;19.70;69.60;;;;;;7318630;19;9842;-74
2024/01/04 14:34:24;;;;;;;;;;;19.60;69.60;;;;;;7320172;19;11131;-74
2024/01/04 14:36:53;;;;;;;;;;;19.60;69.70;;;;;;7319946;19;11136;-74
2024/01/04 14:39:23;;;;;;;;;;;19.60;69.70;;;;;;7316481;19;9595;-74
2024/01/04 14:41:53;;;;;;;;;;;19.50;69.70;;;;;;7317956;19;9157;-75
2024/01/04 14:44:22;;;;;;;;;;;19.50;69.70;;;;;;7319501;19;9190;-74
2024/01/04 14:46:55;;;;;;;;;;;19.60;69.80;;;;;;7318908;19;9290;-74
2024/01/04 14:49:24;;;;;;;;;;;19.60;69.70;;;;;;7317646;19;9304;-74
2024/01/04 14:51:53;;;;;;;;;;;19.60;69.60;;;;;;7315590;19;9326;-74